sensor_id;sensor_type;location;lat;lon;timestamp;P1;durP1;ratioP1;P2;durP2;ratioP2
59127;SDS011;44912;52.754;5.994;2022-12-22T00:00:21;51.70;;;32.20;;
59127;SDS011;44912;52.754;5.994;2022-12-22T00:03:12;44.50;;;30.30;;
59127;SDS011;44912;52.754;5.994;2022-12-22T00:05:56;45.80;;;32.00;;
59127;SDS011;44912;52.754;5.994;2022-12-22T00:08:40;46.23;;;29.13;;
59127;SDS011;44912;52.754;5.994;2022-12-22T00:11:25;52.72;;;32.88;;
59127;SDS011;44912;52.754;5.994;2022-12-22T00:14:09;47.67;;;31.23;;
59127;SDS011;44912;52.754;5.994;2022-12-22T00:19:39;50.30;;;31.95;;
59127;SDS011;44912;52.754;5.994;2022-12-22T00:22:24;43.42;;;29.40;;
59127;SDS011;44912;52.754;5.994;2022-12-22T00:25:11;49.50;;;32.22;;
59127;SDS011;44912;52.754;5.994;2022-12-22T00:27:56;48.08;;;31.45;;
59127;SDS011;44912;52.754;5.994;2022-12-22T00:30:40;52.42;;;33.10;;
59127;SDS011;44912;52.754;5.994;2022-12-22T00:33:24;46.90;;;31.33;;
59127;SDS011;44912;52.754;5.994;2022-12-22T00:36:09;49.92;;;31.60;;
59127;SDS011;44912;52.754;5.994;2022-12-22T00:38:54;49.65;;;31.58;;
59127;SDS011;44912;52.754;5.994;2022-12-22T00:41:38;52.07;;;32.27;;
59127;SDS011;44912;52.754;5.994;2022-12-22T00:44:22;50.65;;;32.05;;
59127;SDS011;44912;52.754;5.994;2022-12-22T00:47:13;57.27;;;33.80;;
59127;SDS011;44912;52.754;5.994;2022-12-22T00:50:10;48.50;;;30.95;;
59127;SDS011;44912;52.754;5.994;2022-12-22T00:52:54;51.88;;;32.33;;
59127;SDS011;44912;52.754;5.994;2022-12-22T00:55:39;51.90;;;31.92;;
59127;SDS011;44912;52.754;5.994;2022-12-22T00:58:23;52.23;;;31.67;;
59127;SDS011;44912;52.754;5.994;2022-12-22T01:01:09;58.13;;;31.73;;
59127;SDS011;44912;52.754;5.994;2022-12-22T01:03:54;51.17;;;31.95;;
59127;SDS011;44912;52.754;5.994;2022-12-22T01:06:38;51.88;;;31.80;;
59127;SDS011;44912;52.754;5.994;2022-12-22T01:09:22;51.17;;;32.63;;
59127;SDS011;44912;52.754;5.994;2022-12-22T01:12:12;49.53;;;31.02;;
59127;SDS011;44912;52.754;5.994;2022-12-22T01:15:11;54.00;;;34.25;;
59127;SDS011;44912;52.754;5.994;2022-12-22T01:17:57;54.10;;;33.22;;
59127;SDS011;44912;52.754;5.994;2022-12-22T01:20:41;52.07;;;33.53;;
59127;SDS011;44912;52.754;5.994;2022-12-22T01:23:26;51.30;;;32.38;;
59127;SDS011;44912;52.754;5.994;2022-12-22T01:26:10;54.92;;;31.90;;
59127;SDS011;44912;52.754;5.994;2022-12-22T01:28:54;59.83;;;33.80;;
59127;SDS011;44912;52.754;5.994;2022-12-22T01:31:38;51.20;;;31.67;;
59127;SDS011;44912;52.754;5.994;2022-12-22T01:34:22;48.67;;;31.35;;
59127;SDS011;44912;52.754;5.994;2022-12-22T01:37:07;52.38;;;31.80;;
59127;SDS011;44912;52.754;5.994;2022-12-22T01:39:51;46.83;;;30.88;;
59127;SDS011;44912;52.754;5.994;2022-12-22T01:42:34;47.85;;;30.27;;
59127;SDS011;44912;52.754;5.994;2022-12-22T01:48:11;50.53;;;30.23;;
59127;SDS011;44912;52.754;5.994;2022-12-22T01:51:02;54.50;;;31.60;;
59127;SDS011;44912;52.754;5.994;2022-12-22T01:53:49;48.60;;;30.13;;
59127;SDS011;44912;52.754;5.994;2022-12-22T01:59:18;47.78;;;29.92;;
59127;SDS011;44912;52.754;5.994;2022-12-22T02:02:06;47.57;;;29.00;;
59127;SDS011;44912;52.754;5.994;2022-12-22T02:04:51;46.90;;;29.52;;
59127;SDS011;44912;52.754;5.994;2022-12-22T02:13:44;46.80;;;27.75;;
59127;SDS011;44912;52.754;5.994;2022-12-22T02:23:18;51.38;;;30.38;;
59127;SDS011;44912;52.754;5.994;2022-12-22T02:26:23;51.08;;;30.55;;
59127;SDS011;44912;52.754;5.994;2022-12-22T02:32:02;46.88;;;27.60;;
59127;SDS011;44912;52.754;5.994;2022-12-22T02:34:46;53.00;;;30.50;;
59127;SDS011;44912;52.754;5.994;2022-12-22T02:37:43;49.63;;;30.70;;
59127;SDS011;44912;52.754;5.994;2022-12-22T02:46:44;54.88;;;31.50;;
59127;SDS011;44912;52.754;5.994;2022-12-22T02:49:40;56.78;;;31.50;;
59127;SDS011;44912;52.754;5.994;2022-12-22T02:52:34;58.60;;;32.88;;
59127;SDS011;44912;52.754;5.994;2022-12-22T02:55:21;63.58;;;32.08;;
59127;SDS011;44912;52.754;5.994;2022-12-22T02:58:05;55.60;;;31.97;;
59127;SDS011;44912;52.754;5.994;2022-12-22T03:00:49;60.70;;;33.30;;
59127;SDS011;44912;52.754;5.994;2022-12-22T03:06:18;64.40;;;33.38;;
59127;SDS011;44912;52.754;5.994;2022-12-22T03:09:02;83.67;;;32.47;;
59127;SDS011;44912;52.754;5.994;2022-12-22T03:11:46;70.40;;;33.97;;
59127;SDS011;44912;52.754;5.994;2022-12-22T03:14:30;75.90;;;33.47;;
59127;SDS011;44912;52.754;5.994;2022-12-22T03:17:14;71.77;;;33.73;;
59127;SDS011;44912;52.754;5.994;2022-12-22T03:19:58;85.80;;;34.80;;
59127;SDS011;44912;52.754;5.994;2022-12-22T03:22:42;68.05;;;32.03;;
59127;SDS011;44912;52.754;5.994;2022-12-22T03:25:26;69.53;;;34.10;;
59127;SDS011;44912;52.754;5.994;2022-12-22T03:28:10;73.37;;;34.13;;
59127;SDS011;44912;52.754;5.994;2022-12-22T03:30:36;85.68;;;33.70;;
59127;SDS011;44912;52.754;5.994;2022-12-22T03:33:02;148.52;;;36.15;;
59127;SDS011;44912;52.754;5.994;2022-12-22T03:35:28;97.55;;;35.30;;
59127;SDS011;44912;52.754;5.994;2022-12-22T03:37:53;106.97;;;35.13;;
59127;SDS011;44912;52.754;5.994;2022-12-22T03:40:19;109.97;;;35.58;;
59127;SDS011;44912;52.754;5.994;2022-12-22T03:42:44;131.98;;;37.03;;
59127;SDS011;44912;52.754;5.994;2022-12-22T03:45:29;153.90;;;38.23;;
59127;SDS011;44912;52.754;5.994;2022-12-22T03:48:13;103.87;;;35.50;;
59127;SDS011;44912;52.754;5.994;2022-12-22T03:50:38;80.15;;;34.22;;
59127;SDS011;44912;52.754;5.994;2022-12-22T03:53:04;121.78;;;35.88;;
59127;SDS011;44912;52.754;5.994;2022-12-22T03:55:29;72.32;;;33.60;;
59127;SDS011;44912;52.754;5.994;2022-12-22T03:57:55;104.47;;;33.67;;
59127;SDS011;44912;52.754;5.994;2022-12-22T04:00:21;118.22;;;33.83;;
59127;SDS011;44912;52.754;5.994;2022-12-22T04:02:47;78.55;;;33.47;;
59127;SDS011;44912;52.754;5.994;2022-12-22T04:05:12;74.65;;;34.00;;
59127;SDS011;44912;52.754;5.994;2022-12-22T04:07:38;187.57;;;37.75;;
59127;SDS011;44912;52.754;5.994;2022-12-22T04:10:03;107.55;;;34.92;;
59127;SDS011;44912;52.754;5.994;2022-12-22T04:12:52;134.75;;;36.60;;
59127;SDS011;44912;52.754;5.994;2022-12-22T04:15:21;129.27;;;35.42;;
59127;SDS011;44912;52.754;5.994;2022-12-22T04:17:47;110.35;;;35.38;;
59127;SDS011;44912;52.754;5.994;2022-12-22T04:20:13;140.95;;;34.40;;
59127;SDS011;44912;52.754;5.994;2022-12-22T04:22:38;141.43;;;36.03;;
59127;SDS011;44912;52.754;5.994;2022-12-22T04:25:04;135.55;;;34.85;;
59127;SDS011;44912;52.754;5.994;2022-12-22T04:27:30;98.70;;;34.42;;
59127;SDS011;44912;52.754;5.994;2022-12-22T04:29:56;144.55;;;35.33;;
59127;SDS011;44912;52.754;5.994;2022-12-22T04:32:21;112.88;;;37.75;;
59127;SDS011;44912;52.754;5.994;2022-12-22T04:34:47;202.80;;;38.17;;
59127;SDS011;44912;52.754;5.994;2022-12-22T04:37:12;117.78;;;37.63;;
59127;SDS011;44912;52.754;5.994;2022-12-22T04:39:38;149.57;;;37.90;;
59127;SDS011;44912;52.754;5.994;2022-12-22T04:42:03;185.35;;;38.55;;
59127;SDS011;44912;52.754;5.994;2022-12-22T04:44:29;222.07;;;40.55;;
59127;SDS011;44912;52.754;5.994;2022-12-22T04:46:54;256.75;;;42.00;;
59127;SDS011;44912;52.754;5.994;2022-12-22T04:49:20;310.60;;;43.13;;
59127;SDS011;44912;52.754;5.994;2022-12-22T04:51:45;329.45;;;42.90;;
59127;SDS011;44912;52.754;5.994;2022-12-22T04:54:11;322.75;;;41.95;;
59127;SDS011;44912;52.754;5.994;2022-12-22T04:56:36;385.27;;;42.13;;
59127;SDS011;44912;52.754;5.994;2022-12-22T04:59:02;392.30;;;42.00;;
59127;SDS011;44912;52.754;5.994;2022-12-22T05:01:27;377.58;;;42.55;;
59127;SDS011;44912;52.754;5.994;2022-12-22T05:03:53;389.13;;;43.13;;
59127;SDS011;44912;52.754;5.994;2022-12-22T05:06:19;214.77;;;37.60;;
59127;SDS011;44912;52.754;5.994;2022-12-22T05:08:44;242.27;;;39.47;;
59127;SDS011;44912;52.754;5.994;2022-12-22T05:11:10;241.55;;;37.83;;
59127;SDS011;44912;52.754;5.994;2022-12-22T05:13:35;242.93;;;38.05;;
59127;SDS011;44912;52.754;5.994;2022-12-22T05:16:02;228.15;;;36.63;;
59127;SDS011;44912;52.754;5.994;2022-12-22T05:18:32;349.27;;;36.67;;
59127;SDS011;44912;52.754;5.994;2022-12-22T05:21:01;296.70;;;35.80;;
59127;SDS011;44912;52.754;5.994;2022-12-22T05:23:28;222.20;;;34.10;;
59127;SDS011;44912;52.754;5.994;2022-12-22T05:25:54;311.17;;;36.20;;
59127;SDS011;44912;52.754;5.994;2022-12-22T05:28:19;229.23;;;36.63;;
59127;SDS011;44912;52.754;5.994;2022-12-22T05:30:45;479.48;;;38.13;;
59127;SDS011;44912;52.754;5.994;2022-12-22T05:33:10;615.35;;;42.92;;
59127;SDS011;44912;52.754;5.994;2022-12-22T05:35:36;670.85;;;40.40;;
59127;SDS011;44912;52.754;5.994;2022-12-22T05:38:01;696.15;;;42.30;;
59127;SDS011;44912;52.754;5.994;2022-12-22T05:40:27;745.13;;;43.90;;
59127;SDS011;44912;52.754;5.994;2022-12-22T05:42:52;689.38;;;40.97;;
59127;SDS011;44912;52.754;5.994;2022-12-22T05:45:19;752.53;;;44.55;;
59127;SDS011;44912;52.754;5.994;2022-12-22T05:47:46;674.35;;;40.95;;
59127;SDS011;44912;52.754;5.994;2022-12-22T05:50:14;793.83;;;45.53;;
59127;SDS011;44912;52.754;5.994;2022-12-22T05:52:42;655.60;;;37.55;;
59127;SDS011;44912;52.754;5.994;2022-12-22T05:55:08;464.58;;;31.10;;
59127;SDS011;44912;52.754;5.994;2022-12-22T05:57:34;629.03;;;35.28;;
59127;SDS011;44912;52.754;5.994;2022-12-22T06:00:00;465.20;;;30.40;;
59127;SDS011;44912;52.754;5.994;2022-12-22T06:02:27;644.90;;;35.30;;
59127;SDS011;44912;52.754;5.994;2022-12-22T06:04:53;572.50;;;33.55;;
59127;SDS011;44912;52.754;5.994;2022-12-22T06:07:18;531.20;;;31.98;;
59127;SDS011;44912;52.754;5.994;2022-12-22T06:09:44;617.13;;;35.83;;
59127;SDS011;44912;52.754;5.994;2022-12-22T06:12:09;502.73;;;31.42;;
59127;SDS011;44912;52.754;5.994;2022-12-22T06:14:35;583.20;;;34.97;;
59127;SDS011;44912;52.754;5.994;2022-12-22T06:17:00;552.65;;;32.33;;
59127;SDS011;44912;52.754;5.994;2022-12-22T06:19:26;528.90;;;31.92;;
59127;SDS011;44912;52.754;5.994;2022-12-22T06:21:52;490.77;;;29.00;;
59127;SDS011;44912;52.754;5.994;2022-12-22T06:24:17;479.25;;;29.58;;
59127;SDS011;44912;52.754;5.994;2022-12-22T06:26:43;494.63;;;31.00;;
59127;SDS011;44912;52.754;5.994;2022-12-22T06:29:08;470.75;;;30.75;;
59127;SDS011;44912;52.754;5.994;2022-12-22T06:31:34;430.40;;;28.50;;
59127;SDS011;44912;52.754;5.994;2022-12-22T06:33:59;540.40;;;32.15;;
59127;SDS011;44912;52.754;5.994;2022-12-22T06:36:25;448.17;;;29.50;;
59127;SDS011;44912;52.754;5.994;2022-12-22T06:38:50;431.98;;;29.00;;
59127;SDS011;44912;52.754;5.994;2022-12-22T06:41:16;452.20;;;29.00;;
59127;SDS011;44912;52.754;5.994;2022-12-22T06:44:02;380.80;;;28.05;;
59127;SDS011;44912;52.754;5.994;2022-12-22T06:46:27;413.90;;;27.92;;
59127;SDS011;44912;52.754;5.994;2022-12-22T06:48:53;421.80;;;29.27;;
59127;SDS011;44912;52.754;5.994;2022-12-22T06:51:18;444.05;;;28.50;;
59127;SDS011;44912;52.754;5.994;2022-12-22T06:53:44;484.65;;;28.90;;
59127;SDS011;44912;52.754;5.994;2022-12-22T06:56:09;517.10;;;30.10;;
59127;SDS011;44912;52.754;5.994;2022-12-22T06:58:35;471.45;;;28.17;;
59127;SDS011;44912;52.754;5.994;2022-12-22T07:01:00;453.67;;;29.85;;
59127;SDS011;44912;52.754;5.994;2022-12-22T07:03:26;523.03;;;32.53;;
59127;SDS011;44912;52.754;5.994;2022-12-22T07:05:51;436.60;;;29.27;;
59127;SDS011;44912;52.754;5.994;2022-12-22T07:08:17;462.52;;;29.58;;
59127;SDS011;44912;52.754;5.994;2022-12-22T07:10:43;403.90;;;31.02;;
59127;SDS011;44912;52.754;5.994;2022-12-22T07:13:25;445.85;;;27.95;;
59127;SDS011;44912;52.754;5.994;2022-12-22T07:16:02;446.90;;;27.40;;
59127;SDS011;44912;52.754;5.994;2022-12-22T07:18:31;485.95;;;28.00;;
59127;SDS011;44912;52.754;5.994;2022-12-22T07:21:01;442.73;;;26.95;;
59127;SDS011;44912;52.754;5.994;2022-12-22T07:23:28;419.05;;;26.70;;
59127;SDS011;44912;52.754;5.994;2022-12-22T07:25:54;475.45;;;27.67;;
59127;SDS011;44912;52.754;5.994;2022-12-22T07:28:19;461.65;;;28.48;;
59127;SDS011;44912;52.754;5.994;2022-12-22T07:30:45;395.83;;;26.02;;
59127;SDS011;44912;52.754;5.994;2022-12-22T07:33:11;387.08;;;24.73;;
59127;SDS011;44912;52.754;5.994;2022-12-22T07:35:37;351.85;;;24.38;;
59127;SDS011;44912;52.754;5.994;2022-12-22T07:38:02;511.15;;;30.13;;
59127;SDS011;44912;52.754;5.994;2022-12-22T07:40:28;341.90;;;24.88;;
59127;SDS011;44912;52.754;5.994;2022-12-22T07:42:57;339.45;;;24.48;;
59127;SDS011;44912;52.754;5.994;2022-12-22T07:45:23;402.88;;;25.67;;
59127;SDS011;44912;52.754;5.994;2022-12-22T07:47:49;312.58;;;21.80;;
59127;SDS011;44912;52.754;5.994;2022-12-22T07:50:16;313.67;;;22.05;;
59127;SDS011;44912;52.754;5.994;2022-12-22T07:52:56;303.50;;;20.75;;
59127;SDS011;44912;52.754;5.994;2022-12-22T07:55:24;249.20;;;18.52;;
59127;SDS011;44912;52.754;5.994;2022-12-22T07:57:51;257.80;;;19.85;;
59127;SDS011;44912;52.754;5.994;2022-12-22T08:00:18;316.88;;;21.20;;
59127;SDS011;44912;52.754;5.994;2022-12-22T08:02:48;316.85;;;20.42;;
59127;SDS011;44912;52.754;5.994;2022-12-22T08:05:18;222.73;;;19.02;;
59127;SDS011;44912;52.754;5.994;2022-12-22T08:07:44;332.13;;;20.33;;
59127;SDS011;44912;52.754;5.994;2022-12-22T08:10:10;312.02;;;20.27;;
59127;SDS011;44912;52.754;5.994;2022-12-22T08:12:36;352.42;;;20.55;;
59127;SDS011;44912;52.754;5.994;2022-12-22T08:15:02;275.10;;;19.70;;
59127;SDS011;44912;52.754;5.994;2022-12-22T08:17:28;377.00;;;21.90;;
59127;SDS011;44912;52.754;5.994;2022-12-22T08:19:54;329.70;;;20.40;;
59127;SDS011;44912;52.754;5.994;2022-12-22T08:22:20;262.65;;;18.45;;
59127;SDS011;44912;52.754;5.994;2022-12-22T08:24:48;358.98;;;21.13;;
59127;SDS011;44912;52.754;5.994;2022-12-22T08:27:15;264.98;;;17.73;;
59127;SDS011;44912;52.754;5.994;2022-12-22T08:29:47;351.15;;;20.73;;
59127;SDS011;44912;52.754;5.994;2022-12-22T08:32:15;305.35;;;22.15;;
59127;SDS011;44912;52.754;5.994;2022-12-22T08:34:40;302.73;;;19.60;;
59127;SDS011;44912;52.754;5.994;2022-12-22T08:37:08;266.73;;;19.60;;
59127;SDS011;44912;52.754;5.994;2022-12-22T08:39:39;294.02;;;19.70;;
59127;SDS011;44912;52.754;5.994;2022-12-22T08:42:07;356.33;;;22.20;;
59127;SDS011;44912;52.754;5.994;2022-12-22T08:44:35;339.73;;;21.58;;
59127;SDS011;44912;52.754;5.994;2022-12-22T08:47:04;247.60;;;18.40;;
59127;SDS011;44912;52.754;5.994;2022-12-22T08:49:30;221.00;;;17.63;;
59127;SDS011;44912;52.754;5.994;2022-12-22T08:51:56;246.73;;;17.00;;
59127;SDS011;44912;52.754;5.994;2022-12-22T08:54:22;239.13;;;17.23;;
59127;SDS011;44912;52.754;5.994;2022-12-22T08:56:48;252.18;;;18.13;;
59127;SDS011;44912;52.754;5.994;2022-12-22T08:59:14;244.57;;;18.00;;
59127;SDS011;44912;52.754;5.994;2022-12-22T09:01:41;192.65;;;16.98;;
59127;SDS011;44912;52.754;5.994;2022-12-22T09:04:08;294.85;;;20.00;;
59127;SDS011;44912;52.754;5.994;2022-12-22T09:06:38;291.17;;;20.38;;
59127;SDS011;44912;52.754;5.994;2022-12-22T09:09:05;225.48;;;18.42;;
59127;SDS011;44912;52.754;5.994;2022-12-22T09:11:31;151.20;;;17.05;;
59127;SDS011;44912;52.754;5.994;2022-12-22T09:13:58;218.93;;;18.00;;
59127;SDS011;44912;52.754;5.994;2022-12-22T09:16:25;143.05;;;16.27;;
59127;SDS011;44912;52.754;5.994;2022-12-22T09:18:53;176.57;;;16.60;;
59127;SDS011;44912;52.754;5.994;2022-12-22T09:21:19;145.80;;;15.32;;
59127;SDS011;44912;52.754;5.994;2022-12-22T09:23:45;95.60;;;13.40;;
59127;SDS011;44912;52.754;5.994;2022-12-22T09:26:12;142.20;;;15.18;;
59127;SDS011;44912;52.754;5.994;2022-12-22T09:28:40;184.60;;;15.07;;
59127;SDS011;44912;52.754;5.994;2022-12-22T09:31:06;156.32;;;13.82;;
59127;SDS011;44912;52.754;5.994;2022-12-22T09:33:32;186.65;;;15.10;;
59127;SDS011;44912;52.754;5.994;2022-12-22T09:36:03;198.65;;;15.05;;
59127;SDS011;44912;52.754;5.994;2022-12-22T09:38:30;194.98;;;16.73;;
59127;SDS011;44912;52.754;5.994;2022-12-22T09:40:55;181.57;;;16.52;;
59127;SDS011;44912;52.754;5.994;2022-12-22T09:43:24;172.82;;;15.93;;
59127;SDS011;44912;52.754;5.994;2022-12-22T09:45:53;168.35;;;15.90;;
59127;SDS011;44912;52.754;5.994;2022-12-22T09:48:19;107.55;;;15.40;;
59127;SDS011;44912;52.754;5.994;2022-12-22T09:50:45;95.30;;;13.25;;
59127;SDS011;44912;52.754;5.994;2022-12-22T09:53:15;148.93;;;16.02;;
59127;SDS011;44912;52.754;5.994;2022-12-22T09:55:47;72.53;;;13.18;;
59127;SDS011;44912;52.754;5.994;2022-12-22T09:58:47;77.32;;;11.48;;
59127;SDS011;44912;52.754;5.994;2022-12-22T10:04:03;58.95;;;12.02;;
59127;SDS011;44912;52.754;5.994;2022-12-22T10:09:21;75.03;;;13.23;;
59127;SDS011;44912;52.754;5.994;2022-12-22T10:11:54;66.22;;;12.50;;
59127;SDS011;44912;52.754;5.994;2022-12-22T10:14:24;64.15;;;13.05;;
59127;SDS011;44912;52.754;5.994;2022-12-22T10:19:43;50.15;;;13.02;;
59127;SDS011;44912;52.754;5.994;2022-12-22T10:22:29;46.85;;;13.18;;
59127;SDS011;44912;52.754;5.994;2022-12-22T10:24:59;40.13;;;13.10;;
59127;SDS011;44912;52.754;5.994;2022-12-22T10:27:25;30.95;;;12.20;;
59127;SDS011;44912;52.754;5.994;2022-12-22T10:38:18;31.10;;;13.50;;
59127;SDS011;44912;52.754;5.994;2022-12-22T10:43:45;31.17;;;12.40;;
59127;SDS011;44912;52.754;5.994;2022-12-22T10:46:17;32.90;;;13.88;;
59127;SDS011;44912;52.754;5.994;2022-12-22T10:48:52;34.53;;;13.85;;
59127;SDS011;44912;52.754;5.994;2022-12-22T10:51:32;37.28;;;14.23;;
59127;SDS011;44912;52.754;5.994;2022-12-22T10:53:58;35.53;;;14.05;;
59127;SDS011;44912;52.754;5.994;2022-12-22T10:56:25;38.10;;;14.25;;
59127;SDS011;44912;52.754;5.994;2022-12-22T11:01:29;34.40;;;14.23;;
59127;SDS011;44912;52.754;5.994;2022-12-22T11:03:54;36.67;;;14.38;;
59127;SDS011;44912;52.754;5.994;2022-12-22T11:06:20;35.00;;;14.15;;
59127;SDS011;44912;52.754;5.994;2022-12-22T11:08:47;34.45;;;14.18;;
59127;SDS011;44912;52.754;5.994;2022-12-22T11:11:15;33.00;;;13.80;;
59127;SDS011;44912;52.754;5.994;2022-12-22T11:13:54;31.10;;;13.38;;
59127;SDS011;44912;52.754;5.994;2022-12-22T11:19:33;32.28;;;14.27;;
59127;SDS011;44912;52.754;5.994;2022-12-22T11:22:24;37.50;;;14.45;;
59127;SDS011;44912;52.754;5.994;2022-12-22T11:27:57;28.92;;;12.73;;
59127;SDS011;44912;52.754;5.994;2022-12-22T11:35:58;30.50;;;11.43;;
59127;SDS011;44912;52.754;5.994;2022-12-22T11:41:13;30.25;;;11.50;;
59127;SDS011;44912;52.754;5.994;2022-12-22T11:43:57;29.20;;;10.68;;
59127;SDS011;44912;52.754;5.994;2022-12-22T11:46:36;28.25;;;10.60;;
59127;SDS011;44912;52.754;5.994;2022-12-22T11:52:28;23.00;;;7.97;;
59127;SDS011;44912;52.754;5.994;2022-12-22T11:55:28;19.83;;;6.45;;
59127;SDS011;44912;52.754;5.994;2022-12-22T11:58:03;15.80;;;5.37;;
59127;SDS011;44912;52.754;5.994;2022-12-22T12:01:17;15.98;;;4.57;;
59127;SDS011;44912;52.754;5.994;2022-12-22T12:03:54;18.50;;;4.75;;
59127;SDS011;44912;52.754;5.994;2022-12-22T12:06:46;14.20;;;3.33;;
59127;SDS011;44912;52.754;5.994;2022-12-22T12:09:27;12.60;;;3.22;;
59127;SDS011;44912;52.754;5.994;2022-12-22T12:12:08;18.88;;;4.40;;
59127;SDS011;44912;52.754;5.994;2022-12-22T12:15:00;14.73;;;3.97;;
59127;SDS011;44912;52.754;5.994;2022-12-22T12:20:20;14.98;;;3.50;;
59127;SDS011;44912;52.754;5.994;2022-12-22T12:23:00;14.20;;;3.45;;
59127;SDS011;44912;52.754;5.994;2022-12-22T12:25:47;17.83;;;4.15;;
59127;SDS011;44912;52.754;5.994;2022-12-22T12:31:34;11.73;;;3.50;;
59127;SDS011;44912;52.754;5.994;2022-12-22T12:34:08;13.45;;;3.83;;
59127;SDS011;44912;52.754;5.994;2022-12-22T12:36:45;14.98;;;3.58;;
59127;SDS011;44912;52.754;5.994;2022-12-22T12:42:06;12.50;;;4.10;;
59127;SDS011;44912;52.754;5.994;2022-12-22T12:44:50;13.05;;;3.47;;
59127;SDS011;44912;52.754;5.994;2022-12-22T12:47:30;16.33;;;3.85;;
59127;SDS011;44912;52.754;5.994;2022-12-22T12:57:57;7.13;;;2.72;;
59127;SDS011;44912;52.754;5.994;2022-12-22T13:03:03;10.02;;;2.72;;
59127;SDS011;44912;52.754;5.994;2022-12-22T13:05:34;14.85;;;3.33;;
59127;SDS011;44912;52.754;5.994;2022-12-22T13:20:57;11.07;;;3.20;;
59127;SDS011;44912;52.754;5.994;2022-12-22T13:23:30;12.80;;;4.28;;
59127;SDS011;44912;52.754;5.994;2022-12-22T13:26:07;9.00;;;3.33;;
59127;SDS011;44912;52.754;5.994;2022-12-22T13:28:38;12.27;;;3.40;;
59127;SDS011;44912;52.754;5.994;2022-12-22T13:31:20;10.70;;;3.85;;
59127;SDS011;44912;52.754;5.994;2022-12-22T13:33:57;14.77;;;3.72;;
59127;SDS011;44912;52.754;5.994;2022-12-22T13:36:40;12.88;;;3.97;;
59127;SDS011;44912;52.754;5.994;2022-12-22T13:39:11;11.48;;;3.25;;
59127;SDS011;44912;52.754;5.994;2022-12-22T13:41:39;9.35;;;3.40;;
59127;SDS011;44912;52.754;5.994;2022-12-22T13:44:09;9.52;;;2.92;;
59127;SDS011;44912;52.754;5.994;2022-12-22T13:46:37;9.73;;;3.10;;
59127;SDS011;44912;52.754;5.994;2022-12-22T13:49:04;12.35;;;3.88;;
59127;SDS011;44912;52.754;5.994;2022-12-22T13:51:34;10.10;;;3.30;;
59127;SDS011;44912;52.754;5.994;2022-12-22T13:56:38;16.40;;;3.80;;
59127;SDS011;44912;52.754;5.994;2022-12-22T13:59:05;9.18;;;3.10;;
59127;SDS011;44912;52.754;5.994;2022-12-22T14:04:16;12.75;;;3.75;;
59127;SDS011;44912;52.754;5.994;2022-12-22T14:06:41;15.13;;;3.65;;
59127;SDS011;44912;52.754;5.994;2022-12-22T14:09:11;13.25;;;3.80;;
59127;SDS011;44912;52.754;5.994;2022-12-22T14:11:40;12.23;;;3.80;;
59127;SDS011;44912;52.754;5.994;2022-12-22T14:14:18;9.95;;;4.00;;
59127;SDS011;44912;52.754;5.994;2022-12-22T14:16:51;12.88;;;3.90;;
59127;SDS011;44912;52.754;5.994;2022-12-22T14:19:18;10.13;;;3.97;;
59127;SDS011;44912;52.754;5.994;2022-12-22T14:21:46;13.93;;;4.63;;
59127;SDS011;44912;52.754;5.994;2022-12-22T14:24:17;14.93;;;4.32;;
59127;SDS011;44912;52.754;5.994;2022-12-22T14:26:45;14.13;;;4.72;;
59127;SDS011;44912;52.754;5.994;2022-12-22T14:29:16;15.48;;;4.75;;
59127;SDS011;44912;52.754;5.994;2022-12-22T14:34:27;10.80;;;4.65;;
59127;SDS011;44912;52.754;5.994;2022-12-22T14:36:57;9.43;;;4.88;;
59127;SDS011;44912;52.754;5.994;2022-12-22T14:39:25;12.02;;;5.32;;
59127;SDS011;44912;52.754;5.994;2022-12-22T14:41:53;13.98;;;5.47;;
59127;SDS011;44912;52.754;5.994;2022-12-22T14:47:01;15.07;;;5.78;;
59127;SDS011;44912;52.754;5.994;2022-12-22T14:54:49;16.35;;;5.60;;
59127;SDS011;44912;52.754;5.994;2022-12-22T14:57:24;17.67;;;5.70;;
59127;SDS011;44912;52.754;5.994;2022-12-22T15:00:05;12.93;;;5.88;;
59127;SDS011;44912;52.754;5.994;2022-12-22T15:02:51;15.32;;;9.00;;
59127;SDS011;44912;52.754;5.994;2022-12-22T15:07:51;18.45;;;13.32;;
59127;SDS011;44912;52.754;5.994;2022-12-22T15:10:18;22.52;;;14.52;;
59127;SDS011;44912;52.754;5.994;2022-12-22T15:12:44;21.25;;;13.75;;
59127;SDS011;44912;52.754;5.994;2022-12-22T15:15:13;21.45;;;16.17;;
59127;SDS011;44912;52.754;5.994;2022-12-22T15:17:44;22.27;;;15.57;;
59127;SDS011;44912;52.754;5.994;2022-12-22T15:20:13;22.80;;;17.02;;
59127;SDS011;44912;52.754;5.994;2022-12-22T15:22:41;24.10;;;16.48;;
59127;SDS011;44912;52.754;5.994;2022-12-22T15:25:11;24.25;;;17.20;;
59127;SDS011;44912;52.754;5.994;2022-12-22T15:27:38;27.27;;;16.70;;
59127;SDS011;44912;52.754;5.994;2022-12-22T15:30:04;25.98;;;17.58;;
59127;SDS011;44912;52.754;5.994;2022-12-22T15:32:30;26.02;;;19.05;;
59127;SDS011;44912;52.754;5.994;2022-12-22T15:34:55;29.50;;;20.55;;
59127;SDS011;44912;52.754;5.994;2022-12-22T15:37:21;28.92;;;20.95;;
59127;SDS011;44912;52.754;5.994;2022-12-22T15:39:46;28.27;;;21.33;;
59127;SDS011;44912;52.754;5.994;2022-12-22T15:42:12;24.98;;;19.25;;
59127;SDS011;44912;52.754;5.994;2022-12-22T15:44:38;27.38;;;20.38;;
59127;SDS011;44912;52.754;5.994;2022-12-22T15:47:03;26.48;;;19.60;;
59127;SDS011;44912;52.754;5.994;2022-12-22T15:49:29;27.17;;;20.17;;
59127;SDS011;44912;52.754;5.994;2022-12-22T15:51:56;29.00;;;20.30;;
59127;SDS011;44912;52.754;5.994;2022-12-22T15:54:24;29.42;;;20.98;;
59127;SDS011;44912;52.754;5.994;2022-12-22T15:56:51;28.60;;;17.42;;
59127;SDS011;44912;52.754;5.994;2022-12-22T15:59:20;26.45;;;16.90;;
59127;SDS011;44912;52.754;5.994;2022-12-22T16:01:49;23.58;;;16.33;;
59127;SDS011;44912;52.754;5.994;2022-12-22T16:04:15;27.75;;;15.95;;
59127;SDS011;44912;52.754;5.994;2022-12-22T16:06:42;26.05;;;16.13;;
59127;SDS011;44912;52.754;5.994;2022-12-22T16:09:08;26.35;;;16.30;;
59127;SDS011;44912;52.754;5.994;2022-12-22T16:14:09;26.45;;;15.93;;
59127;SDS011;44912;52.754;5.994;2022-12-22T16:16:37;27.02;;;16.85;;
59127;SDS011;44912;52.754;5.994;2022-12-22T16:19:04;26.92;;;16.77;;
59127;SDS011;44912;52.754;5.994;2022-12-22T16:21:30;29.92;;;17.58;;
59127;SDS011;44912;52.754;5.994;2022-12-22T16:23:56;27.40;;;16.73;;
59127;SDS011;44912;52.754;5.994;2022-12-22T16:26:24;30.55;;;17.90;;
59127;SDS011;44912;52.754;5.994;2022-12-22T16:28:50;32.13;;;17.65;;
59127;SDS011;44912;52.754;5.994;2022-12-22T16:31:20;30.80;;;17.25;;
59127;SDS011;44912;52.754;5.994;2022-12-22T16:33:46;30.70;;;17.42;;
59127;SDS011;44912;52.754;5.994;2022-12-22T16:36:12;28.60;;;17.33;;
59127;SDS011;44912;52.754;5.994;2022-12-22T16:38:38;31.33;;;18.67;;
59127;SDS011;44912;52.754;5.994;2022-12-22T16:41:04;42.10;;;25.67;;
59127;SDS011;44912;52.754;5.994;2022-12-22T16:43:41;105.60;;;54.25;;
59127;SDS011;44912;52.754;5.994;2022-12-22T16:46:10;40.90;;;24.98;;
59127;SDS011;44912;52.754;5.994;2022-12-22T16:48:39;33.90;;;19.80;;
59127;SDS011;44912;52.754;5.994;2022-12-22T16:51:13;31.73;;;19.40;;
59127;SDS011;44912;52.754;5.994;2022-12-22T16:53:42;33.90;;;19.77;;